KRYY/RYY METAR and TAF weather

Enter ICAO airport designator
Station Type Date Time Source
KRYY METAR 2020/05/29 19:50 UTC NOAA

KRYY 291950Z 26008KT 10SM FEW039 28/19 A3002 RMK AO2 SLP887 T02830189 PNO $


Station Type Date Time Source
KRYY Decoded METAR 2020/05/29 19:50 UTC NOAA

Marietta, Cobb County-McCollum Field Airport, GA, United States (KRYY) 34-00-47N 084-35-55W
May 29, 2020 - 03:50 PM EDT / 2020.05.29 1950 UTC
Wind: from the W (260 degrees) at 9 MPH (8 KT):0
Visibility: 10 mile(s):0
Sky conditions: mostly clear
Temperature: 82.9 F (28.3 C)
Dew Point: 66.0 F (18.9 C)
Relative Humidity: 56%
Pressure (altimeter): 30.02 in. Hg (1016 hPa)
ob: KRYY 291950Z 26008KT 10SM FEW039 28/19 A3002 RMK AO2 SLP887 T02830189 PNO
cycle: 20

Station Type Date Time Source
KRYY TAF 2020/05/29 18:45 UTC NOAA

TAF KRYY 291742Z 2918/3018 24006KT P6SM VCSH SCT035 SCT100
FM291900 26006KT P6SM VCSH SCT040 BKN060
TEMPO 2920/2924 VRB15G25KT 4SM TSRA BKN040CB
FM300400 29004KT P6SM SCT050 BKN120
FM301600 32007KT P6SM FEW150

Example: see airport list